Ms-hammaritha — PF2437 — position and weather

sailwx.info

Track history (hours):
 
Tides and Currents Weather Stations Pressure Air Temp Water Temp Dewpoint Dewpoint Depression Visibility Wind Speed Wind Dir Waves Ship Positions

Ms-hammaritha

Last reported at 2014-Sep-22 17:33 UTC. Time now 2014-Sep-22 18:16 UTC.
Position N 51°48' E 005°22'.

Length 86 m.

Type: Ship. MMSI: 244700691.

Date/timePositionNaut miles runAvg speedWind from/ knotsBaromVisibWave heightAir tempDewpointWater temp
2014-Sep-22 17:33N 51°48' E 005°22'7 7.5
2014-Sep-22 16:33N 51°53' E 005°31'22 0.6
2014-Sep-21 06:31N 52°01' E 006°04'12 0.6
2014-Sep-20 08:12N 51°51' E 005°51'4 5.6
2014-Sep-20 07:25N 51°53' E 005°45'5 5.6
2014-Sep-20 06:29N 51°54' E 005°36'5 5.6
2014-Sep-20 05:33N 51°53' E 005°28'6 5.7
2014-Sep-20 04:33N 51°49' E 005°22'1 1.1
2014-Sep-20 03:33N 51°48' E 005°21'0 0.0
2014-Sep-20 02:33N 51°48' E 005°21'0 0.0
2014-Sep-20 01:33N 51°48' E 005°21'0 0.0
2014-Sep-20 00:33N 51°48' E 005°21'0 0.0
2014-Sep-19 23:33N 51°48' E 005°21'0 0.0
2014-Sep-19 22:33N 51°48' E 005°21'0 0.0
2014-Sep-19 21:33N 51°48' E 005°21'0 0.0
2014-Sep-19 20:33N 51°48' E 005°21'0 0.0
2014-Sep-19 19:33N 51°48' E 005°21'5 4.6
2014-Sep-19 18:33N 51°49' E 005°14'6 5.9
2014-Sep-19 17:33N 51°50' E 005°04'5 5.1
2014-Sep-19 16:33N 51°50' E 004°56'6 6.2
2014-Sep-19 15:33N 51°48' E 004°47'1 1.1
2014-Sep-19 14:33N 51°47' E 004°45'0 0.0
2014-Sep-19 13:33N 51°47' E 004°45'0 0.0
2014-Sep-19 12:33N 51°47' E 004°45'0 0.0
2014-Sep-19 11:33N 51°47' E 004°45'0 0.1
2014-Sep-19 10:33N 51°47' E 004°45'0 0.0
2014-Sep-19 09:33N 51°47' E 004°45'4 3.6
2014-Sep-19 08:33N 51°44' E 004°42'3 3.0
2014-Sep-19 07:33N 51°43' E 004°37'6 0.4
2014-Sep-18 15:06N 51°46' E 004°45'1 1.3
2014-Sep-18 14:33N 51°47' E 004°45'0 0.0
2014-Sep-18 13:33N 51°47' E 004°45'0 0.0
2014-Sep-18 12:33N 51°47' E 004°45'0 0.0
2014-Sep-18 11:33N 51°47' E 004°45'0 0.0
2014-Sep-18 10:33N 51°47' E 004°45'0 0.1
2014-Sep-18 09:33N 51°47' E 004°45'3 2.6
2014-Sep-18 08:33N 51°45' E 004°43'5 4.7
2014-Sep-18 07:33N 51°42' E 004°37'1 0.5
2014-Sep-18 06:08N 51°42' E 004°36'0 0.0
2014-Sep-18 05:32N 51°42' E 004°36'0 0.0
2014-Sep-18 04:31N 51°42' E 004°36'0 0.0
2014-Sep-18 03:24N 51°42' E 004°36'0 0.0
2014-Sep-18 02:27N 51°42' E 004°36'0 0.0
2014-Sep-18 01:30N 51°42' E 004°36'0 0.0
2014-Sep-18 00:33N 51°42' E 004°36'0 0.0
2014-Sep-17 23:31N 51°42' E 004°36'0 0.0
2014-Sep-17 21:24N 51°42' E 004°36'0 0.0
2014-Sep-17 20:31N 51°42' E 004°36'0 0.0
2014-Sep-17 19:32N 51°42' E 004°36'0 0.0
2014-Sep-17 18:23N 51°42' E 004°36'3 3.5
2014-Sep-17 17:33N 51°43' E 004°40'5 4.9
2014-Sep-17 16:33N 51°47' E 004°45'0 0.0
2014-Sep-17 15:33N 51°47' E 004°45'0 0.0
2014-Sep-17 14:34N 51°47' E 004°45'0 0.0
2014-Sep-17 13:34N 51°47' E 004°45'0 0.0
2014-Sep-17 12:34N 51°47' E 004°45'0 0.1
2014-Sep-17 11:34N 51°47' E 004°45'0 0.0
2014-Sep-17 10:33N 51°47' E 004°45'0 0.0
2014-Sep-17 09:33N 51°47' E 004°45'2 1.7
2014-Sep-17 08:33N 51°45' E 004°44'5 4.5
2014-Sep-17 07:31N 51°43' E 004°38'2 0.4
2014-Sep-17 03:11N 51°42' E 004°36'0 0.0
2014-Sep-17 02:25N 51°42' E 004°36'0 0.0
2014-Sep-17 01:20N 51°42' E 004°36'0 0.0
2014-Sep-17 00:21N 51°42' E 004°36'0 0.0
2014-Sep-16 23:07N 51°42' E 004°36'0 0.0
2014-Sep-16 22:31N 51°42' E 004°36'0 0.0
2014-Sep-16 18:09N 51°42' E 004°36'1 0.8
2014-Sep-16 16:32N 51°43' E 004°37'6 6.4
2014-Sep-16 15:33N 51°47' E 004°45'0 0.1
2014-Sep-16 14:33N 51°47' E 004°45'0 0.0
2014-Sep-16 13:33N 51°47' E 004°45'0 0.0
2014-Sep-16 12:33N 51°47' E 004°45'0 0.0
2014-Sep-16 11:33N 51°47' E 004°45'0 0.1
2014-Sep-16 10:33N 51°47' E 004°45'0 0.0
2014-Sep-16 09:33N 51°47' E 004°45'1 1.4
2014-Sep-16 08:33N 51°46' E 004°44'5 4.5
2014-Sep-16 07:33N 51°43' E 004°38'2 0.6
2014-Sep-16 04:32N 51°42' E 004°36'0 0.0
2014-Sep-16 03:33N 51°42' E 004°36'0 0.0
2014-Sep-16 02:33N 51°42' E 004°36'0 0.0
2014-Sep-16 01:33N 51°42' E 004°36'0 0.0
2014-Sep-16 00:33N 51°42' E 004°36'0 0.0
2014-Sep-15 23:33N 51°42' E 004°36'0 0.0
2014-Sep-15 22:33N 51°42' E 004°36'0 0.0
2014-Sep-15 21:33N 51°42' E 004°36'0 0.0
2014-Sep-15 20:33N 51°42' E 004°36'0 0.0
2014-Sep-15 19:33N 51°42' E 004°36'0 0.0
2014-Sep-15 18:33N 51°42' E 004°36'3 2.8
2014-Sep-15 17:33N 51°43' E 004°40'5 5.0
2014-Sep-15 16:33N 51°47' E 004°45'0 0.0
2014-Sep-15 15:33N 51°47' E 004°45'0 0.0
2014-Sep-15 14:33N 51°47' E 004°45'0 0.0
2014-Sep-15 13:33N 51°47' E 004°45'0 0.0
2014-Sep-15 12:33N 51°47' E 004°45'0 0.1
2014-Sep-15 11:33N 51°47' E 004°45'1 1.2
2014-Sep-15 10:33N 51°46' E 004°45'5 5.2
2014-Sep-15 09:33N 51°43' E 004°38'7 1.1
2014-Sep-15 03:33N 51°42' E 004°27'1 1.2
2014-Sep-15 02:32N 51°42' E 004°25'0 0.0
2014-Sep-15 01:33N 51°42' E 004°25'0 0.0
2014-Sep-15 00:27N 51°42' E 004°25'0 0.0
2014-Sep-14 23:33N 51°42' E 004°25'0 0.0
2014-Sep-14 22:29N 51°42' E 004°25'0 0.0
2014-Sep-14 21:29N 51°42' E 004°25'0 0.0
2014-Sep-14 20:24N 51°42' E 004°25'0 0.0
2014-Sep-14 19:30N 51°42' E 004°25'0 0.0
2014-Sep-14 18:24N 51°42' E 004°25'0 0.0
2014-Sep-14 17:19N 51°42' E 004°25'0 0.0
2014-Sep-14 16:08N 51°42' E 004°25'0 0.0
2014-Sep-14 15:05N 51°42' E 004°25'0 0.0
2014-Sep-14 14:15N 51°42' E 004°25'0 0.0
2014-Sep-14 13:31N 51°42' E 004°25'0 0.0
2014-Sep-14 11:30N 51°42' E 004°25'0 0.0
2014-Sep-14 09:25N 51°42' E 004°25'0 0.0
2014-Sep-14 08:15N 51°42' E 004°25'0 0.0
2014-Sep-14 07:23N 51°42' E 004°25'0 0.0
2014-Sep-14 06:33N 51°42' E 004°25'0 0.0
2014-Sep-14 05:26N 51°42' E 004°25'0 0.0
2014-Sep-14 04:28N 51°42' E 004°25'0 0.0
2014-Sep-14 03:29N 51°42' E 004°25'0 0.0
2014-Sep-14 02:31N 51°42' E 004°25'0 0.0
2014-Sep-14 01:32N 51°42' E 004°25'0 0.0
2014-Sep-13 21:29N 51°42' E 004°25'0 0.0
2014-Sep-13 20:31N 51°42' E 004°25'0 0.0
2014-Sep-13 19:33N 51°42' E 004°25'0 0.0
2014-Sep-13 18:31N 51°42' E 004°25'0 0.0
2014-Sep-13 17:30N 51°42' E 004°25'0 0.0
2014-Sep-13 16:33N 51°42' E 004°25'0 0.0
2014-Sep-13 15:30N 51°42' E 004°25'0 0.0
2014-Sep-13 14:32N 51°42' E 004°25'0 0.0
2014-Sep-13 13:06N 51°42' E 004°25'0 0.0
2014-Sep-13 12:22N 51°42' E 004°25'0 0.0
2014-Sep-13 11:12N 51°42' E 004°25'0 0.0
2014-Sep-13 10:07N 51°42' E 004°25'0 0.0
2014-Sep-13 09:22N 51°42' E 004°25'0 0.0
2014-Sep-13 08:33N 51°42' E 004°25'0 0.0
2014-Sep-13 07:31N 51°42' E 004°25'0 0.0
2014-Sep-13 06:32N 51°42' E 004°25'0 0.0
2014-Sep-13 05:29N 51°42' E 004°25'0 0.0
2014-Sep-13 04:32N 51°42' E 004°25'0 0.0
2014-Sep-13 03:29N 51°42' E 004°25'0 0.0
2014-Sep-13 02:31N 51°42' E 004°25'0 0.0
2014-Sep-13 01:29N 51°42' E 004°25'0 0.0
2014-Sep-13 00:27N 51°42' E 004°25'0 0.0
2014-Sep-12 23:27N 51°42' E 004°25'0 0.0
2014-Sep-12 22:33N 51°42' E 004°25'0 0.0
2014-Sep-12 21:32N 51°42' E 004°25'0 0.0
2014-Sep-12 20:32N 51°42' E 004°25'0 0.0
2014-Sep-12 19:24N 51°42' E 004°25'  
Track history (hours):
 
Tides and Currents Weather Stations Pressure Air Temp Water Temp Dewpoint Dewpoint Depression Visibility Wind Speed Wind Dir Waves Ship Positions

Ms-hammaritha

Last reported at 2014-Sep-22 17:33 UTC. Time now 2014-Sep-22 18:16 UTC.
Position N 51°48' E 005°22'.

Length 86 m.

Type: Ship. MMSI: 244700691.

Date/timePositionNaut miles runAvg speedWind from/ knotsBaromVisibWave heightAir tempDewpointWater temp
2014-Sep-22 17:33N 51°48' E 005°22'7 7.5
2014-Sep-22 16:33N 51°53' E 005°31'22 0.6
2014-Sep-21 06:31N 52°01' E 006°04'12 0.6
2014-Sep-20 08:12N 51°51' E 005°51'4 5.6
2014-Sep-20 07:25N 51°53' E 005°45'5 5.6
2014-Sep-20 06:29N 51°54' E 005°36'5 5.6
2014-Sep-20 05:33N 51°53' E 005°28'6 5.7
2014-Sep-20 04:33N 51°49' E 005°22'1 1.1
2014-Sep-20 03:33N 51°48' E 005°21'0 0.0
2014-Sep-20 02:33N 51°48' E 005°21'0 0.0
2014-Sep-20 01:33N 51°48' E 005°21'0 0.0
2014-Sep-20 00:33N 51°48' E 005°21'0 0.0
2014-Sep-19 23:33N 51°48' E 005°21'0 0.0
2014-Sep-19 22:33N 51°48' E 005°21'0 0.0
2014-Sep-19 21:33N 51°48' E 005°21'0 0.0
2014-Sep-19 20:33N 51°48' E 005°21'0 0.0
2014-Sep-19 19:33N 51°48' E 005°21'5 4.6
2014-Sep-19 18:33N 51°49' E 005°14'6 5.9
2014-Sep-19 17:33N 51°50' E 005°04'5 5.1
2014-Sep-19 16:33N 51°50' E 004°56'6 6.2
2014-Sep-19 15:33N 51°48' E 004°47'1 1.1
2014-Sep-19 14:33N 51°47' E 004°45'0 0.0
2014-Sep-19 13:33N 51°47' E 004°45'0 0.0
2014-Sep-19 12:33N 51°47' E 004°45'0 0.0
2014-Sep-19 11:33N 51°47' E 004°45'0 0.1
2014-Sep-19 10:33N 51°47' E 004°45'0 0.0
2014-Sep-19 09:33N 51°47' E 004°45'4 3.6
2014-Sep-19 08:33N 51°44' E 004°42'3 3.0
2014-Sep-19 07:33N 51°43' E 004°37'6 0.4
2014-Sep-18 15:06N 51°46' E 004°45'1 1.3
2014-Sep-18 14:33N 51°47' E 004°45'0 0.0
2014-Sep-18 13:33N 51°47' E 004°45'0 0.0
2014-Sep-18 12:33N 51°47' E 004°45'0 0.0
2014-Sep-18 11:33N 51°47' E 004°45'0 0.0
2014-Sep-18 10:33N 51°47' E 004°45'0 0.1
2014-Sep-18 09:33N 51°47' E 004°45'3 2.6
2014-Sep-18 08:33N 51°45' E 004°43'5 4.7
2014-Sep-18 07:33N 51°42' E 004°37'1 0.5
2014-Sep-18 06:08N 51°42' E 004°36'0 0.0
2014-Sep-18 05:32N 51°42' E 004°36'0 0.0
2014-Sep-18 04:31N 51°42' E 004°36'0 0.0
2014-Sep-18 03:24N 51°42' E 004°36'0 0.0
2014-Sep-18 02:27N 51°42' E 004°36'0 0.0
2014-Sep-18 01:30N 51°42' E 004°36'0 0.0
2014-Sep-18 00:33N 51°42' E 004°36'0 0.0
2014-Sep-17 23:31N 51°42' E 004°36'0 0.0
2014-Sep-17 21:24N 51°42' E 004°36'0 0.0
2014-Sep-17 20:31N 51°42' E 004°36'0 0.0
2014-Sep-17 19:32N 51°42' E 004°36'0 0.0
2014-Sep-17 18:23N 51°42' E 004°36'3 3.5
2014-Sep-17 17:33N 51°43' E 004°40'5 4.9
2014-Sep-17 16:33N 51°47' E 004°45'0 0.0
2014-Sep-17 15:33N 51°47' E 004°45'0 0.0
2014-Sep-17 14:34N 51°47' E 004°45'0 0.0
2014-Sep-17 13:34N 51°47' E 004°45'0 0.0
2014-Sep-17 12:34N 51°47' E 004°45'0 0.1
2014-Sep-17 11:34N 51°47' E 004°45'0 0.0
2014-Sep-17 10:33N 51°47' E 004°45'0 0.0
2014-Sep-17 09:33N 51°47' E 004°45'2 1.7
2014-Sep-17 08:33N 51°45' E 004°44'5 4.5
2014-Sep-17 07:31N 51°43' E 004°38'2 0.4
2014-Sep-17 03:11N 51°42' E 004°36'0 0.0
2014-Sep-17 02:25N 51°42' E 004°36'0 0.0
2014-Sep-17 01:20N 51°42' E 004°36'0 0.0
2014-Sep-17 00:21N 51°42' E 004°36'0 0.0
2014-Sep-16 23:07N 51°42' E 004°36'0 0.0
2014-Sep-16 22:31N 51°42' E 004°36'0 0.0
2014-Sep-16 18:09N 51°42' E 004°36'1 0.8
2014-Sep-16 16:32N 51°43' E 004°37'6 6.4
2014-Sep-16 15:33N 51°47' E 004°45'0 0.1
2014-Sep-16 14:33N 51°47' E 004°45'0 0.0
2014-Sep-16 13:33N 51°47' E 004°45'0 0.0
2014-Sep-16 12:33N 51°47' E 004°45'0 0.0
2014-Sep-16 11:33N 51°47' E 004°45'0 0.1
2014-Sep-16 10:33N 51°47' E 004°45'0 0.0
2014-Sep-16 09:33N 51°47' E 004°45'1 1.4
2014-Sep-16 08:33N 51°46' E 004°44'5 4.5
2014-Sep-16 07:33N 51°43' E 004°38'2 0.6
2014-Sep-16 04:32N 51°42' E 004°36'0 0.0
2014-Sep-16 03:33N 51°42' E 004°36'0 0.0
2014-Sep-16 02:33N 51°42' E 004°36'0 0.0
2014-Sep-16 01:33N 51°42' E 004°36'0 0.0
2014-Sep-16 00:33N 51°42' E 004°36'0 0.0
2014-Sep-15 23:33N 51°42' E 004°36'0 0.0
2014-Sep-15 22:33N 51°42' E 004°36'0 0.0
2014-Sep-15 21:33N 51°42' E 004°36'0 0.0
2014-Sep-15 20:33N 51°42' E 004°36'0 0.0
2014-Sep-15 19:33N 51°42' E 004°36'0 0.0
2014-Sep-15 18:33N 51°42' E 004°36'3 2.8
2014-Sep-15 17:33N 51°43' E 004°40'5 5.0
2014-Sep-15 16:33N 51°47' E 004°45'0 0.0
2014-Sep-15 15:33N 51°47' E 004°45'0 0.0
2014-Sep-15 14:33N 51°47' E 004°45'0 0.0
2014-Sep-15 13:33N 51°47' E 004°45'0 0.0
2014-Sep-15 12:33N 51°47' E 004°45'0 0.1
2014-Sep-15 11:33N 51°47' E 004°45'1 1.2
2014-Sep-15 10:33N 51°46' E 004°45'5 5.2
2014-Sep-15 09:33N 51°43' E 004°38'7 1.1
2014-Sep-15 03:33N 51°42' E 004°27'1 1.2
2014-Sep-15 02:32N 51°42' E 004°25'0 0.0
2014-Sep-15 01:33N 51°42' E 004°25'0 0.0
2014-Sep-15 00:27N 51°42' E 004°25'0 0.0
2014-Sep-14 23:33N 51°42' E 004°25'0 0.0
2014-Sep-14 22:29N 51°42' E 004°25'0 0.0
2014-Sep-14 21:29N 51°42' E 004°25'0 0.0
2014-Sep-14 20:24N 51°42' E 004°25'0 0.0
2014-Sep-14 19:30N 51°42' E 004°25'0 0.0
2014-Sep-14 18:24N 51°42' E 004°25'0 0.0
2014-Sep-14 17:19N 51°42' E 004°25'0 0.0
2014-Sep-14 16:08N 51°42' E 004°25'0 0.0
2014-Sep-14 15:05N 51°42' E 004°25'0 0.0
2014-Sep-14 14:15N 51°42' E 004°25'0 0.0
2014-Sep-14 13:31N 51°42' E 004°25'0 0.0
2014-Sep-14 11:30N 51°42' E 004°25'0 0.0
2014-Sep-14 09:25N 51°42' E 004°25'0 0.0
2014-Sep-14 08:15N 51°42' E 004°25'0 0.0
2014-Sep-14 07:23N 51°42' E 004°25'0 0.0
2014-Sep-14 06:33N 51°42' E 004°25'0 0.0
2014-Sep-14 05:26N 51°42' E 004°25'0 0.0
2014-Sep-14 04:28N 51°42' E 004°25'0 0.0
2014-Sep-14 03:29N 51°42' E 004°25'0 0.0
2014-Sep-14 02:31N 51°42' E 004°25'0 0.0
2014-Sep-14 01:32N 51°42' E 004°25'0 0.0
2014-Sep-13 21:29N 51°42' E 004°25'0 0.0
2014-Sep-13 20:31N 51°42' E 004°25'0 0.0
2014-Sep-13 19:33N 51°42' E 004°25'0 0.0
2014-Sep-13 18:31N 51°42' E 004°25'0 0.0
2014-Sep-13 17:30N 51°42' E 004°25'0 0.0
2014-Sep-13 16:33N 51°42' E 004°25'0 0.0
2014-Sep-13 15:30N 51°42' E 004°25'0 0.0
2014-Sep-13 14:32N 51°42' E 004°25'0 0.0
2014-Sep-13 13:06N 51°42' E 004°25'0 0.0
2014-Sep-13 12:22N 51°42' E 004°25'0 0.0
2014-Sep-13 11:12N 51°42' E 004°25'0 0.0
2014-Sep-13 10:07N 51°42' E 004°25'0 0.0
2014-Sep-13 09:22N 51°42' E 004°25'0 0.0
2014-Sep-13 08:33N 51°42' E 004°25'0 0.0
2014-Sep-13 07:31N 51°42' E 004°25'0 0.0
2014-Sep-13 06:32N 51°42' E 004°25'0 0.0
2014-Sep-13 05:29N 51°42' E 004°25'0 0.0
2014-Sep-13 04:32N 51°42' E 004°25'0 0.0
2014-Sep-13 03:29N 51°42' E 004°25'0 0.0
2014-Sep-13 02:31N 51°42' E 004°25'0 0.0
2014-Sep-13 01:29N 51°42' E 004°25'0 0.0
2014-Sep-13 00:27N 51°42' E 004°25'0 0.0
2014-Sep-12 23:27N 51°42' E 004°25'0 0.0
2014-Sep-12 22:33N 51°42' E 004°25'0 0.0
2014-Sep-12 21:32N 51°42' E 004°25'0 0.0
2014-Sep-12 20:32N 51°42' E 004°25'0 0.0
2014-Sep-12 19:24N 51°42' E 004°25'  

Dump ship's entire track history